Time;durP1;ratioP1;P1;durP2;ratioP2;P2;SDS_P1;SDS_P2;PMS_P1;PMS_P2;Temp;Humidity;BMP_temperature;BMP_pressure;BME280_temperature;BME280_humidity;BME280_pressure;Samples;Min_cycle;Max_cycle;Signal;HPM_P1;HPM_P2
2024/02/20 00:00:13;;;;;;;5.2;4.2;;;;;;;;;;;;;
2024/02/20 00:02:38;;;;;;;4.8;3.8;;;;;;;;;;;;;
2024/02/20 00:05:08;;;;;;;3.1;2.8;;;;;;;;;;;;;
2024/02/20 00:07:29;;;;;;;2.7;2.3;;;;;;;;;;;;;
2024/02/20 00:09:53;;;;;;;2.1;1.9;;;;;;;;;;;;;
2024/02/20 00:12:20;;;;;;;2;1.8;;;;;;;;;;;;;
2024/02/20 00:14:44;;;;;;;2.5;2.2;;;;;;;;;;;;;
2024/02/20 00:17:09;;;;;;;4.6;2.8;;;;;;;;;;;;;
2024/02/20 00:19:34;;;;;;;3.5;2.5;;;;;;;;;;;;;
2024/02/20 00:21:59;;;;;;;2.9;2.6;;;;;;;;;;;;;
2024/02/20 00:24:24;;;;;;;3.9;2.8;;;;;;;;;;;;;
2024/02/20 00:26:49;;;;;;;3.5;2.8;;;;;;;;;;;;;
2024/02/20 00:29:15;;;;;;;3.6;2.2;;;;;;;;;;;;;
2024/02/20 00:31:39;;;;;;;1.8;1.7;;;;;;;;;;;;;
2024/02/20 00:34:04;;;;;;;2.4;2.2;;;;;;;;;;;;;
2024/02/20 00:36:29;;;;;;;2.5;2.1;;;;;;;;;;;;;
2024/02/20 00:38:55;;;;;;;2.9;2.1;;;;;;;;;;;;;
2024/02/20 00:41:20;;;;;;;3.1;2.2;;;;;;;;;;;;;
2024/02/20 00:43:45;;;;;;;3.3;2.3;;;;;;;;;;;;;
2024/02/20 00:46:11;;;;;;;2.8;2.5;;;;;;;;;;;;;
2024/02/20 00:48:35;;;;;;;3.5;2.3;;;;;;;;;;;;;
2024/02/20 00:51:00;;;;;;;3.4;2.4;;;;;;;;;;;;;
2024/02/20 00:53:25;;;;;;;3.4;1.8;;;;;;;;;;;;;
2024/02/20 00:55:52;;;;;;;2.2;1.5;;;;;;;;;;;;;
2024/02/20 00:58:17;;;;;;;2.1;1.7;;;;;;;;;;;;;
2024/02/20 01:00:42;;;;;;;2.1;1.9;;;;;;;;;;;;;
2024/02/20 01:03:07;;;;;;;3.1;2.1;;;;;;;;;;;;;
2024/02/20 01:05:33;;;;;;;2.4;2.1;;;;;;;;;;;;;
2024/02/20 01:07:58;;;;;;;3.1;2.1;;;;;;;;;;;;;
2024/02/20 01:10:23;;;;;;;2.4;1.9;;;;;;;;;;;;;
2024/02/20 01:12:48;;;;;;;2;1.7;;;;;;;;;;;;;
2024/02/20 01:15:13;;;;;;;2.4;2;;;;;;;;;;;;;
2024/02/20 01:17:39;;;;;;;2.3;2.1;;;;;;;;;;;;;
2024/02/20 01:20:05;;;;;;;2.6;2.1;;;;;;;;;;;;;
2024/02/20 01:22:29;;;;;;;2.4;2.2;;;;;;;;;;;;;
2024/02/20 01:24:54;;;;;;;3.3;2.3;;;;;;;;;;;;;
2024/02/20 01:27:19;;;;;;;3.1;2.1;;;;;;;;;;;;;
2024/02/20 01:29:44;;;;;;;3.1;2.4;;;;;;;;;;;;;
2024/02/20 01:32:09;;;;;;;2.3;2.1;;;;;;;;;;;;;
2024/02/20 01:34:34;;;;;;;2.2;2;;;;;;;;;;;;;
2024/02/20 01:36:59;;;;;;;2.1;1.8;;;;;;;;;;;;;
2024/02/20 01:39:24;;;;;;;2.2;1.9;;;;;;;;;;;;;
2024/02/20 01:41:49;;;;;;;3;2.1;;;;;;;;;;;;;
2024/02/20 01:44:14;;;;;;;2.4;1.9;;;;;;;;;;;;;
2024/02/20 01:46:41;;;;;;;2.2;2;;;;;;;;;;;;;
2024/02/20 01:49:06;;;;;;;2.2;1.9;;;;;;;;;;;;;
2024/02/20 01:51:30;;;;;;;3.3;2.3;;;;;;;;;;;;;
2024/02/20 01:53:55;;;;;;;2.9;2.1;;;;;;;;;;;;;
2024/02/20 01:56:20;;;;;;;3.3;2.2;;;;;;;;;;;;;
2024/02/20 01:58:45;;;;;;;3.2;2.1;;;;;;;;;;;;;
2024/02/20 02:01:11;;;;;;;2.8;2.2;;;;;;;;;;;;;
2024/02/20 02:03:36;;;;;;;2.8;2.2;;;;;;;;;;;;;
2024/02/20 02:06:01;;;;;;;2.5;2;;;;;;;;;;;;;
2024/02/20 02:08:26;;;;;;;2.3;2.1;;;;;;;;;;;;;
2024/02/20 02:10:51;;;;;;;2.9;2.2;;;;;;;;;;;;;
2024/02/20 02:13:17;;;;;;;3.3;2.1;;;;;;;;;;;;;
2024/02/20 02:15:41;;;;;;;2;1.8;;;;;;;;;;;;;
2024/02/20 02:18:06;;;;;;;2.5;2;;;;;;;;;;;;;
2024/02/20 02:20:31;;;;;;;3.1;1.5;;;;;;;;;;;;;
2024/02/20 02:22:57;;;;;;;2.3;1.5;;;;;;;;;;;;;
2024/02/20 02:25:24;;;;;;;1.7;1.5;;;;;;;;;;;;;
2024/02/20 02:27:47;;;;;;;1.9;1.5;;;;;;;;;;;;;
2024/02/20 02:30:14;;;;;;;2.3;1.5;;;;;;;;;;;;;
2024/02/20 02:32:39;;;;;;;1.5;1.4;;;;;;;;;;;;;
2024/02/20 02:35:03;;;;;;;1.3;1.2;;;;;;;;;;;;;
2024/02/20 02:37:28;;;;;;;2.9;1.4;;;;;;;;;;;;;
2024/02/20 02:39:53;;;;;;;1.6;1.5;;;;;;;;;;;;;
2024/02/20 02:42:19;;;;;;;1.8;1.4;;;;;;;;;;;;;
2024/02/20 02:44:43;;;;;;;1.5;1.2;;;;;;;;;;;;;
2024/02/20 02:47:08;;;;;;;1.5;1.4;;;;;;;;;;;;;
2024/02/20 02:49:33;;;;;;;1.7;1.6;;;;;;;;;;;;;
2024/02/20 02:52:00;;;;;;;1.8;1.4;;;;;;;;;;;;;
2024/02/20 02:54:25;;;;;;;2;1.7;;;;;;;;;;;;;
2024/02/20 02:56:49;;;;;;;2;1.5;;;;;;;;;;;;;
2024/02/20 02:59:14;;;;;;;1.8;1.6;;;;;;;;;;;;;
2024/02/20 03:01:39;;;;;;;1.8;1.7;;;;;;;;;;;;;
2024/02/20 03:04:04;;;;;;;3.3;1.9;;;;;;;;;;;;;
2024/02/20 03:06:29;;;;;;;2.4;1.6;;;;;;;;;;;;;
2024/02/20 03:08:55;;;;;;;2.4;1.8;;;;;;;;;;;;;
2024/02/20 03:11:20;;;;;;;3.1;2.1;;;;;;;;;;;;;
2024/02/20 03:13:45;;;;;;;2.9;2;;;;;;;;;;;;;
2024/02/20 03:16:10;;;;;;;3.3;2;;;;;;;;;;;;;
2024/02/20 03:18:35;;;;;;;2.3;2;;;;;;;;;;;;;
2024/02/20 03:21:01;;;;;;;2.7;2.1;;;;;;;;;;;;;
2024/02/20 03:23:26;;;;;;;2.2;2;;;;;;;;;;;;;
2024/02/20 03:25:51;;;;;;;3.4;2.4;;;;;;;;;;;;;
2024/02/20 03:28:16;;;;;;;3.6;2.2;;;;;;;;;;;;;
2024/02/20 03:30:42;;;;;;;6.4;3.3;;;;;;;;;;;;;
2024/02/20 03:33:07;;;;;;;5.9;2.9;;;;;;;;;;;;;
2024/02/20 03:35:32;;;;;;;3.1;1.9;;;;;;;;;;;;;
2024/02/20 03:37:58;;;;;;;2;1.5;;;;;;;;;;;;;
2024/02/20 03:40:22;;;;;;;2.9;1.9;;;;;;;;;;;;;
2024/02/20 03:42:47;;;;;;;4.1;2.4;;;;;;;;;;;;;
2024/02/20 03:46:52;;;;;;;2.8;2.1;;;;;;;;;;;;;
2024/02/20 03:49:17;;;;;;;1.9;1.7;;;;;;;;;;;;;
2024/02/20 03:51:44;;;;;;;1.8;1.7;;;;;;;;;;;;;
2024/02/20 03:54:07;;;;;;;3.8;2.2;;;;;;;;;;;;;
2024/02/20 03:56:32;;;;;;;2.3;2.1;;;;;;;;;;;;;
2024/02/20 03:58:57;;;;;;;2.2;1.9;;;;;;;;;;;;;
2024/02/20 04:02:28;;;;;;;3.1;2.1;;;;;;;;;;;;;
2024/02/20 04:04:53;;;;;;;5;3.6;;;;;;;;;;;;;
2024/02/20 04:07:18;;;;;;;3.4;2.6;;;;;;;;;;;;;
2024/02/20 04:09:43;;;;;;;2.6;1.8;;;;;;;;;;;;;
2024/02/20 04:12:08;;;;;;;1.9;1.7;;;;;;;;;;;;;
2024/02/20 04:14:33;;;;;;;2.1;1.5;;;;;;;;;;;;;
2024/02/20 04:16:58;;;;;;;2.2;1.9;;;;;;;;;;;;;
2024/02/20 04:19:23;;;;;;;1.8;1.6;;;;;;;;;;;;;
2024/02/20 04:21:48;;;;;;;2;1.7;;;;;;;;;;;;;
2024/02/20 04:24:14;;;;;;;1.8;1.7;;;;;;;;;;;;;
2024/02/20 04:26:39;;;;;;;1.7;1.6;;;;;;;;;;;;;
2024/02/20 04:29:04;;;;;;;1.8;1.5;;;;;;;;;;;;;
2024/02/20 04:31:30;;;;;;;2.2;1.8;;;;;;;;;;;;;
2024/02/20 04:33:54;;;;;;;4.3;1.9;;;;;;;;;;;;;
2024/02/20 04:36:20;;;;;;;2.8;1.6;;;;;;;;;;;;;
2024/02/20 04:38:44;;;;;;;2.4;1.8;;;;;;;;;;;;;
2024/02/20 04:41:09;;;;;;;2.5;1.6;;;;;;;;;;;;;
2024/02/20 04:43:36;;;;;;;3.6;2.7;;;;;;;;;;;;;
2024/02/20 04:46:00;;;;;;;2;1.8;;;;;;;;;;;;;
2024/02/20 04:48:25;;;;;;;1.8;1.6;;;;;;;;;;;;;
2024/02/20 04:50:50;;;;;;;1.7;1.6;;;;;;;;;;;;;
2024/02/20 04:53:15;;;;;;;2;1.6;;;;;;;;;;;;;
2024/02/20 04:55:40;;;;;;;3;2;;;;;;;;;;;;;
2024/02/20 04:58:05;;;;;;;1.8;1.5;;;;;;;;;;;;;
2024/02/20 05:00:30;;;;;;;1.6;1.5;;;;;;;;;;;;;
2024/02/20 05:02:56;;;;;;;2.6;1.5;;;;;;;;;;;;;
2024/02/20 05:05:20;;;;;;;1.9;1.7;;;;;;;;;;;;;
2024/02/20 05:07:45;;;;;;;2.4;1.8;;;;;;;;;;;;;
2024/02/20 05:10:11;;;;;;;6;3.2;;;;;;;;;;;;;
2024/02/20 05:12:36;;;;;;;5.4;3.1;;;;;;;;;;;;;
2024/02/20 05:15:01;;;;;;;16.1;10.3;;;;;;;;;;;;;
2024/02/20 05:17:26;;;;;;;8.3;4.7;;;;;;;;;;;;;
2024/02/20 05:19:51;;;;;;;2.5;2;;;;;;;;;;;;;
2024/02/20 05:22:19;;;;;;;2.7;2.3;;;;;;;;;;;;;
2024/02/20 05:24:42;;;;;;;3.2;2.1;;;;;;;;;;;;;
2024/02/20 05:27:07;;;;;;;3.2;1.8;;;;;;;;;;;;;
2024/02/20 05:29:32;;;;;;;2.3;1.7;;;;;;;;;;;;;
2024/02/20 05:31:57;;;;;;;3.3;2;;;;;;;;;;;;;
2024/02/20 05:34:22;;;;;;;3.1;1.8;;;;;;;;;;;;;
2024/02/20 05:36:47;;;;;;;2.9;2.2;;;;;;;;;;;;;
2024/02/20 05:39:12;;;;;;;4.3;2.6;;;;;;;;;;;;;
2024/02/20 05:41:37;;;;;;;4.1;2.8;;;;;;;;;;;;;
2024/02/20 05:44:02;;;;;;;2.9;2.3;;;;;;;;;;;;;
2024/02/20 05:46:28;;;;;;;4.2;2.4;;;;;;;;;;;;;
2024/02/20 05:48:53;;;;;;;2.2;1.9;;;;;;;;;;;;;
2024/02/20 05:51:18;;;;;;;2.1;1.9;;;;;;;;;;;;;
2024/02/20 05:53:43;;;;;;;2.5;2.1;;;;;;;;;;;;;
2024/02/20 05:56:09;;;;;;;4.3;3.2;;;;;;;;;;;;;
2024/02/20 05:58:34;;;;;;;3.1;2.5;;;;;;;;;;;;;
2024/02/20 06:00:59;;;;;;;3.7;2.3;;;;;;;;;;;;;
2024/02/20 06:03:24;;;;;;;2.3;2.1;;;;;;;;;;;;;
2024/02/20 06:05:49;;;;;;;2.4;1.9;;;;;;;;;;;;;
2024/02/20 06:08:15;;;;;;;2;1.6;;;;;;;;;;;;;
2024/02/20 06:10:39;;;;;;;2.2;1.9;;;;;;;;;;;;;
2024/02/20 06:13:04;;;;;;;2.4;1.8;;;;;;;;;;;;;
2024/02/20 06:15:29;;;;;;;2.4;2;;;;;;;;;;;;;
2024/02/20 06:17:54;;;;;;;2.9;2.7;;;;;;;;;;;;;
2024/02/20 06:20:20;;;;;;;2.7;2;;;;;;;;;;;;;
2024/02/20 06:22:45;;;;;;;2.6;1.9;;;;;;;;;;;;;
2024/02/20 06:25:10;;;;;;;2.4;1.9;;;;;;;;;;;;;
2024/02/20 06:27:35;;;;;;;2.5;1.9;;;;;;;;;;;;;
2024/02/20 06:30:00;;;;;;;2.7;1.9;;;;;;;;;;;;;
2024/02/20 06:32:25;;;;;;;2;1.8;;;;;;;;;;;;;
2024/02/20 06:38:04;;;;;;;2.1;1.6;;;;;;;;;;;;;
2024/02/20 06:40:29;;;;;;;2;1.5;;;;;;;;;;;;;
2024/02/20 06:42:55;;;;;;;1.9;1.6;;;;;;;;;;;;;
2024/02/20 06:45:19;;;;;;;1.6;1.5;;;;;;;;;;;;;
2024/02/20 06:47:45;;;;;;;2.4;1.6;;;;;;;;;;;;;
2024/02/20 06:50:11;;;;;;;1.7;1.6;;;;;;;;;;;;;
2024/02/20 06:52:38;;;;;;;1.5;1.4;;;;;;;;;;;;;
2024/02/20 06:54:59;;;;;;;1.5;1;;;;;;;;;;;;;
2024/02/20 06:57:24;;;;;;;1.1;1;;;;;;;;;;;;;
2024/02/20 06:59:50;;;;;;;1.2;1.1;;;;;;;;;;;;;
2024/02/20 07:02:15;;;;;;;1.4;1.3;;;;;;;;;;;;;
2024/02/20 07:04:40;;;;;;;0.9;0.9;;;;;;;;;;;;;
2024/02/20 07:07:05;;;;;;;0.8;0.8;;;;;;;;;;;;;
2024/02/20 07:09:30;;;;;;;0.7;0.7;;;;;;;;;;;;;
2024/02/20 07:11:56;;;;;;;2.8;1.6;;;;;;;;;;;;;
2024/02/20 07:14:21;;;;;;;1.7;1.4;;;;;;;;;;;;;
2024/02/20 07:16:46;;;;;;;2.1;1.6;;;;;;;;;;;;;
2024/02/20 07:19:12;;;;;;;3.5;2.6;;;;;;;;;;;;;
2024/02/20 07:21:36;;;;;;;1.4;1.2;;;;;;;;;;;;;
2024/02/20 07:24:03;;;;;;;1.7;1.6;;;;;;;;;;;;;
2024/02/20 07:26:26;;;;;;;2.7;2.5;;;;;;;;;;;;;
2024/02/20 07:28:52;;;;;;;1.1;1.1;;;;;;;;;;;;;
2024/02/20 07:31:17;;;;;;;4.1;2.8;;;;;;;;;;;;;
2024/02/20 07:33:42;;;;;;;14.2;7.8;;;;;;;;;;;;;
2024/02/20 07:36:07;;;;;;;51.4;24.2;;;;;;;;;;;;;
2024/02/20 07:38:32;;;;;;;30.8;16.4;;;;;;;;;;;;;
2024/02/20 07:41:02;;;;;;;5.2;3;;;;;;;;;;;;;
2024/02/20 07:43:22;;;;;;;11.2;7.1;;;;;;;;;;;;;
2024/02/20 07:45:48;;;;;;;0.9;0.9;;;;;;;;;;;;;
2024/02/20 07:48:13;;;;;;;0.8;0.8;;;;;;;;;;;;;
2024/02/20 07:50:38;;;;;;;0.8;0.8;;;;;;;;;;;;;
2024/02/20 07:53:03;;;;;;;0.8;0.8;;;;;;;;;;;;;
2024/02/20 07:55:28;;;;;;;2.3;1.8;;;;;;;;;;;;;
2024/02/20 07:57:54;;;;;;;1.2;0.9;;;;;;;;;;;;;
2024/02/20 08:00:19;;;;;;;1.2;1.1;;;;;;;;;;;;;
2024/02/20 08:02:44;;;;;;;1;1;;;;;;;;;;;;;
2024/02/20 08:05:09;;;;;;;1.3;1.2;;;;;;;;;;;;;
2024/02/20 08:07:34;;;;;;;0.8;0.8;;;;;;;;;;;;;
2024/02/20 08:09:59;;;;;;;1;1;;;;;;;;;;;;;
2024/02/20 08:12:25;;;;;;;2;1.7;;;;;;;;;;;;;
2024/02/20 08:14:49;;;;;;;4.3;3.6;;;;;;;;;;;;;
2024/02/20 08:17:15;;;;;;;3;2.4;;;;;;;;;;;;;
2024/02/20 08:19:41;;;;;;;2.4;1.8;;;;;;;;;;;;;
2024/02/20 08:22:05;;;;;;;3.8;3;;;;;;;;;;;;;
2024/02/20 08:24:30;;;;;;;1.4;1.3;;;;;;;;;;;;;
2024/02/20 08:26:57;;;;;;;1.8;1.7;;;;;;;;;;;;;
2024/02/20 08:29:20;;;;;;;3.8;3.5;;;;;;;;;;;;;
2024/02/20 08:31:45;;;;;;;2;1.9;;;;;;;;;;;;;
2024/02/20 08:34:11;;;;;;;1.9;1.8;;;;;;;;;;;;;
2024/02/20 08:36:37;;;;;;;0.6;0.6;;;;;;;;;;;;;
2024/02/20 08:39:01;;;;;;;0.8;0.8;;;;;;;;;;;;;
2024/02/20 08:41:26;;;;;;;0.5;0.5;;;;;;;;;;;;;
2024/02/20 08:43:52;;;;;;;0.7;0.7;;;;;;;;;;;;;
2024/02/20 08:46:16;;;;;;;0.6;0.6;;;;;;;;;;;;;
2024/02/20 08:48:41;;;;;;;0.5;0.5;;;;;;;;;;;;;
2024/02/20 08:51:06;;;;;;;0.5;0.5;;;;;;;;;;;;;
2024/02/20 08:53:31;;;;;;;0.6;0.5;;;;;;;;;;;;;
2024/02/20 08:55:57;;;;;;;0.9;0.8;;;;;;;;;;;;;
2024/02/20 08:58:23;;;;;;;0.4;0.4;;;;;;;;;;;;;
2024/02/20 09:00:47;;;;;;;0.6;0.6;;;;;;;;;;;;;
2024/02/20 09:03:12;;;;;;;0.6;0.5;;;;;;;;;;;;;
2024/02/20 09:05:37;;;;;;;0.6;0.5;;;;;;;;;;;;;
2024/02/20 09:08:02;;;;;;;1.4;1.1;;;;;;;;;;;;;
2024/02/20 09:10:27;;;;;;;0.9;0.9;;;;;;;;;;;;;
2024/02/20 09:12:52;;;;;;;3.4;2.9;;;;;;;;;;;;;
2024/02/20 09:15:17;;;;;;;0.8;0.8;;;;;;;;;;;;;
2024/02/20 09:17:43;;;;;;;0.9;0.9;;;;;;;;;;;;;
2024/02/20 09:20:10;;;;;;;0.5;0.5;;;;;;;;;;;;;
2024/02/20 09:22:34;;;;;;;0.4;0.4;;;;;;;;;;;;;
2024/02/20 09:24:58;;;;;;;0.8;0.6;;;;;;;;;;;;;
2024/02/20 09:27:23;;;;;;;1.5;0.8;;;;;;;;;;;;;
2024/02/20 09:29:48;;;;;;;0.6;0.4;;;;;;;;;;;;;
2024/02/20 09:32:14;;;;;;;1.5;0.8;;;;;;;;;;;;;
2024/02/20 09:34:38;;;;;;;2.1;1.9;;;;;;;;;;;;;
2024/02/20 09:37:04;;;;;;;2.1;1.6;;;;;;;;;;;;;
2024/02/20 09:39:29;;;;;;;1.9;1.8;;;;;;;;;;;;;
2024/02/20 09:41:54;;;;;;;1.5;1.3;;;;;;;;;;;;;
2024/02/20 09:44:19;;;;;;;2;1.1;;;;;;;;;;;;;
2024/02/20 09:46:44;;;;;;;0.6;0.6;;;;;;;;;;;;;
2024/02/20 09:49:09;;;;;;;0.7;0.7;;;;;;;;;;;;;
2024/02/20 09:51:34;;;;;;;0.8;0.5;;;;;;;;;;;;;
2024/02/20 09:54:00;;;;;;;1.5;0.7;;;;;;;;;;;;;
2024/02/20 09:56:24;;;;;;;1.1;0.5;;;;;;;;;;;;;
2024/02/20 09:58:50;;;;;;;0.7;0.5;;;;;;;;;;;;;
2024/02/20 10:01:15;;;;;;;0.4;0.4;;;;;;;;;;;;;
2024/02/20 10:03:40;;;;;;;1.5;0.7;;;;;;;;;;;;;
2024/02/20 10:06:05;;;;;;;0.7;0.7;;;;;;;;;;;;;
2024/02/20 10:08:32;;;;;;;1;0.7;;;;;;;;;;;;;
2024/02/20 10:10:55;;;;;;;1.6;0.7;;;;;;;;;;;;;
2024/02/20 10:13:21;;;;;;;0.8;0.8;;;;;;;;;;;;;
2024/02/20 10:15:48;;;;;;;1;0.6;;;;;;;;;;;;;
2024/02/20 10:18:12;;;;;;;1.3;0.9;;;;;;;;;;;;;
2024/02/20 10:20:37;;;;;;;1;0.8;;;;;;;;;;;;;
2024/02/20 10:23:02;;;;;;;1.7;1.3;;;;;;;;;;;;;
2024/02/20 10:25:27;;;;;;;1.3;0.8;;;;;;;;;;;;;
2024/02/20 10:27:52;;;;;;;0.7;0.7;;;;;;;;;;;;;
2024/02/20 10:30:17;;;;;;;1.2;0.9;;;;;;;;;;;;;
2024/02/20 10:32:42;;;;;;;2.3;1.2;;;;;;;;;;;;;
2024/02/20 10:35:09;;;;;;;1.1;0.9;;;;;;;;;;;;;
2024/02/20 10:37:33;;;;;;;2.2;1.2;;;;;;;;;;;;;
2024/02/20 10:39:58;;;;;;;2.2;1.1;;;;;;;;;;;;;
2024/02/20 10:42:23;;;;;;;7.9;4;;;;;;;;;;;;;
2024/02/20 10:44:48;;;;;;;2.2;1.1;;;;;;;;;;;;;
2024/02/20 10:47:16;;;;;;;2.4;1;;;;;;;;;;;;;
2024/02/20 10:49:38;;;;;;;2.2;1;;;;;;;;;;;;;
2024/02/20 10:52:04;;;;;;;1.1;0.8;;;;;;;;;;;;;
2024/02/20 10:54:30;;;;;;;2.1;1;;;;;;;;;;;;;
2024/02/20 10:56:54;;;;;;;2.4;1;;;;;;;;;;;;;
2024/02/20 10:59:18;;;;;;;3.7;1.2;;;;;;;;;;;;;
2024/02/20 11:01:44;;;;;;;1.9;1.1;;;;;;;;;;;;;
2024/02/20 11:04:09;;;;;;;3.2;1.3;;;;;;;;;;;;;
2024/02/20 11:06:34;;;;;;;3;1.5;;;;;;;;;;;;;
2024/02/20 11:08:59;;;;;;;1.3;1.2;;;;;;;;;;;;;
2024/02/20 11:11:24;;;;;;;1.8;1.1;;;;;;;;;;;;;
2024/02/20 11:13:49;;;;;;;1.8;1.1;;;;;;;;;;;;;
2024/02/20 11:16:15;;;;;;;2.7;1.8;;;;;;;;;;;;;
2024/02/20 11:18:40;;;;;;;1.9;1;;;;;;;;;;;;;
2024/02/20 11:21:05;;;;;;;9.5;4.6;;;;;;;;;;;;;
2024/02/20 11:23:31;;;;;;;7.2;4;;;;;;;;;;;;;
2024/02/20 11:25:55;;;;;;;2.9;1.5;;;;;;;;;;;;;
2024/02/20 11:28:20;;;;;;;3.8;2.2;;;;;;;;;;;;;
2024/02/20 11:30:46;;;;;;;6.1;3;;;;;;;;;;;;;
2024/02/20 11:33:10;;;;;;;4.7;2.8;;;;;;;;;;;;;
2024/02/20 11:35:36;;;;;;;2.7;1.6;;;;;;;;;;;;;
2024/02/20 11:38:01;;;;;;;2.8;1.6;;;;;;;;;;;;;
2024/02/20 11:40:26;;;;;;;2.3;1;;;;;;;;;;;;;
2024/02/20 11:42:51;;;;;;;2.1;0.7;;;;;;;;;;;;;
2024/02/20 11:45:19;;;;;;;3.5;1.1;;;;;;;;;;;;;
2024/02/20 11:47:42;;;;;;;1.9;0.8;;;;;;;;;;;;;
2024/02/20 11:50:07;;;;;;;1.4;0.9;;;;;;;;;;;;;
2024/02/20 11:52:32;;;;;;;1.6;1;;;;;;;;;;;;;
2024/02/20 11:54:57;;;;;;;3.9;1.3;;;;;;;;;;;;;
2024/02/20 11:57:22;;;;;;;3.3;1;;;;;;;;;;;;;
2024/02/20 11:59:47;;;;;;;1.9;0.6;;;;;;;;;;;;;
2024/02/20 12:02:13;;;;;;;0.6;0.6;;;;;;;;;;;;;
2024/02/20 12:04:38;;;;;;;0.8;0.8;;;;;;;;;;;;;
2024/02/20 12:07:03;;;;;;;2.5;0.9;;;;;;;;;;;;;
2024/02/20 12:09:28;;;;;;;1.2;0.8;;;;;;;;;;;;;
2024/02/20 12:11:53;;;;;;;0.7;0.6;;;;;;;;;;;;;
2024/02/20 12:14:18;;;;;;;1.7;0.8;;;;;;;;;;;;;
2024/02/20 12:16:43;;;;;;;0.8;0.7;;;;;;;;;;;;;
2024/02/20 12:19:10;;;;;;;1.4;0.6;;;;;;;;;;;;;
2024/02/20 12:21:35;;;;;;;0.7;0.6;;;;;;;;;;;;;
2024/02/20 12:23:59;;;;;;;0.5;0.5;;;;;;;;;;;;;
2024/02/20 12:26:24;;;;;;;1.7;0.5;;;;;;;;;;;;;
2024/02/20 12:28:49;;;;;;;0.5;0.4;;;;;;;;;;;;;
2024/02/20 12:31:14;;;;;;;2.1;0.7;;;;;;;;;;;;;
2024/02/20 12:33:39;;;;;;;1.1;0.5;;;;;;;;;;;;;
2024/02/20 12:36:05;;;;;;;0.7;0.7;;;;;;;;;;;;;
2024/02/20 12:38:29;;;;;;;1.6;1.1;;;;;;;;;;;;;
2024/02/20 12:40:55;;;;;;;1.1;0.6;;;;;;;;;;;;;
2024/02/20 12:43:20;;;;;;;0.8;0.5;;;;;;;;;;;;;
2024/02/20 12:45:45;;;;;;;0.8;0.7;;;;;;;;;;;;;
2024/02/20 12:48:10;;;;;;;1.6;1;;;;;;;;;;;;;
2024/02/20 12:50:35;;;;;;;2.1;0.6;;;;;;;;;;;;;
2024/02/20 12:53:00;;;;;;;0.5;0.5;;;;;;;;;;;;;
2024/02/20 12:55:25;;;;;;;0.7;0.6;;;;;;;;;;;;;
2024/02/20 12:57:50;;;;;;;0.7;0.7;;;;;;;;;;;;;
2024/02/20 13:00:15;;;;;;;0.8;0.7;;;;;;;;;;;;;
2024/02/20 13:02:40;;;;;;;0.7;0.5;;;;;;;;;;;;;
2024/02/20 13:05:05;;;;;;;1.3;0.6;;;;;;;;;;;;;
2024/02/20 13:07:31;;;;;;;1.5;0.4;;;;;;;;;;;;;
2024/02/20 13:09:56;;;;;;;0.7;0.5;;;;;;;;;;;;;
2024/02/20 13:12:21;;;;;;;1.3;0.5;;;;;;;;;;;;;
2024/02/20 13:14:49;;;;;;;1.1;0.5;;;;;;;;;;;;;
2024/02/20 13:17:11;;;;;;;1;0.5;;;;;;;;;;;;;
2024/02/20 13:19:36;;;;;;;0.7;0.5;;;;;;;;;;;;;
2024/02/20 13:22:01;;;;;;;0.9;0.7;;;;;;;;;;;;;
2024/02/20 13:24:26;;;;;;;0.4;0.4;;;;;;;;;;;;;
2024/02/20 13:26:53;;;;;;;0.9;0.6;;;;;;;;;;;;;
2024/02/20 13:29:17;;;;;;;0.3;0.3;;;;;;;;;;;;;
2024/02/20 13:31:42;;;;;;;1.3;0.7;;;;;;;;;;;;;
2024/02/20 13:34:09;;;;;;;0.4;0.3;;;;;;;;;;;;;
2024/02/20 13:36:32;;;;;;;0.6;0.4;;;;;;;;;;;;;
2024/02/20 13:38:57;;;;;;;0.9;0.6;;;;;;;;;;;;;
2024/02/20 13:41:26;;;;;;;0.5;0.5;;;;;;;;;;;;;
2024/02/20 13:43:48;;;;;;;0.8;0.5;;;;;;;;;;;;;
2024/02/20 13:46:13;;;;;;;0.8;0.5;;;;;;;;;;;;;
2024/02/20 13:48:38;;;;;;;1;0.5;;;;;;;;;;;;;
2024/02/20 13:51:04;;;;;;;0.4;0.4;;;;;;;;;;;;;
2024/02/20 13:53:29;;;;;;;1.2;0.9;;;;;;;;;;;;;
2024/02/20 13:55:53;;;;;;;1.5;1.4;;;;;;;;;;;;;
2024/02/20 13:58:20;;;;;;;1.1;0.8;;;;;;;;;;;;;
2024/02/20 14:00:44;;;;;;;2;1.1;;;;;;;;;;;;;
2024/02/20 14:03:09;;;;;;;1.5;1;;;;;;;;;;;;;
2024/02/20 14:05:34;;;;;;;1;0.9;;;;;;;;;;;;;
2024/02/20 14:07:59;;;;;;;1.6;1.2;;;;;;;;;;;;;
2024/02/20 14:10:24;;;;;;;1.3;0.6;;;;;;;;;;;;;
2024/02/20 14:12:49;;;;;;;1.4;0.7;;;;;;;;;;;;;
2024/02/20 14:15:14;;;;;;;1;0.7;;;;;;;;;;;;;
2024/02/20 14:17:39;;;;;;;2;1.2;;;;;;;;;;;;;
2024/02/20 14:20:07;;;;;;;2.1;1.5;;;;;;;;;;;;;
2024/02/20 14:22:30;;;;;;;2;1.4;;;;;;;;;;;;;
2024/02/20 14:24:55;;;;;;;2.6;1.4;;;;;;;;;;;;;
2024/02/20 14:27:20;;;;;;;1.6;0.7;;;;;;;;;;;;;
2024/02/20 14:29:45;;;;;;;0.4;0.4;;;;;;;;;;;;;
2024/02/20 14:32:11;;;;;;;0.5;0.5;;;;;;;;;;;;;
2024/02/20 14:34:36;;;;;;;0.7;0.6;;;;;;;;;;;;;
2024/02/20 14:37:01;;;;;;;2.3;0.7;;;;;;;;;;;;;
2024/02/20 14:39:26;;;;;;;1.3;0.5;;;;;;;;;;;;;
2024/02/20 14:41:51;;;;;;;0.7;0.5;;;;;;;;;;;;;
2024/02/20 14:44:17;;;;;;;0.6;0.6;;;;;;;;;;;;;
2024/02/20 14:46:43;;;;;;;1;0.5;;;;;;;;;;;;;
2024/02/20 14:49:07;;;;;;;1.3;0.7;;;;;;;;;;;;;
2024/02/20 14:51:32;;;;;;;0.6;0.6;;;;;;;;;;;;;
2024/02/20 14:53:57;;;;;;;1.4;0.6;;;;;;;;;;;;;
2024/02/20 14:56:22;;;;;;;2;0.7;;;;;;;;;;;;;
2024/02/20 15:00:53;;;;;;;2;1;;;;;;;;;;;;;
2024/02/20 15:03:18;;;;;;;1.5;0.6;;;;;;;;;;;;;
2024/02/20 15:05:43;;;;;;;1.3;1;;;;;;;;;;;;;
2024/02/20 15:08:08;;;;;;;9.1;3.2;;;;;;;;;;;;;
2024/02/20 15:10:34;;;;;;;8.8;3.7;;;;;;;;;;;;;
2024/02/20 15:12:58;;;;;;;4;2.2;;;;;;;;;;;;;
2024/02/20 15:15:24;;;;;;;4.1;2.4;;;;;;;;;;;;;
2024/02/20 15:17:49;;;;;;;8.2;4.3;;;;;;;;;;;;;
2024/02/20 15:20:14;;;;;;;2.3;1.4;;;;;;;;;;;;;
2024/02/20 15:22:40;;;;;;;5;2.6;;;;;;;;;;;;;
2024/02/20 15:25:06;;;;;;;3.3;1.8;;;;;;;;;;;;;
2024/02/20 15:27:29;;;;;;;2.1;1.3;;;;;;;;;;;;;
2024/02/20 15:29:55;;;;;;;1.1;1;;;;;;;;;;;;;
2024/02/20 15:32:20;;;;;;;2.9;2;;;;;;;;;;;;;
2024/02/20 15:34:44;;;;;;;2.1;1.9;;;;;;;;;;;;;
2024/02/20 15:37:09;;;;;;;2.4;1.8;;;;;;;;;;;;;
2024/02/20 15:39:35;;;;;;;11.8;5.6;;;;;;;;;;;;;
2024/02/20 15:42:02;;;;;;;5.5;3;;;;;;;;;;;;;
2024/02/20 15:44:25;;;;;;;1.6;1.2;;;;;;;;;;;;;
2024/02/20 15:46:50;;;;;;;0.7;0.6;;;;;;;;;;;;;
2024/02/20 15:49:15;;;;;;;1.3;0.9;;;;;;;;;;;;;
2024/02/20 15:51:41;;;;;;;2.9;1.6;;;;;;;;;;;;;
2024/02/20 15:54:05;;;;;;;3.7;2;;;;;;;;;;;;;
2024/02/20 15:56:30;;;;;;;1.5;0.8;;;;;;;;;;;;;
2024/02/20 15:58:55;;;;;;;1.3;1;;;;;;;;;;;;;
2024/02/20 16:01:20;;;;;;;1.5;0.9;;;;;;;;;;;;;
2024/02/20 16:03:45;;;;;;;4.9;2.8;;;;;;;;;;;;;
2024/02/20 16:06:10;;;;;;;1.5;1.1;;;;;;;;;;;;;
2024/02/20 16:08:36;;;;;;;4.1;2.5;;;;;;;;;;;;;
2024/02/20 16:11:01;;;;;;;3.1;1.9;;;;;;;;;;;;;
2024/02/20 16:13:26;;;;;;;3.9;2;;;;;;;;;;;;;
2024/02/20 16:15:51;;;;;;;6.8;3.3;;;;;;;;;;;;;
2024/02/20 16:18:16;;;;;;;2.4;1;;;;;;;;;;;;;
2024/02/20 16:20:42;;;;;;;2.7;1.7;;;;;;;;;;;;;
2024/02/20 16:23:08;;;;;;;1.5;0.9;;;;;;;;;;;;;
2024/02/20 16:25:31;;;;;;;9.2;4.7;;;;;;;;;;;;;
2024/02/20 16:27:57;;;;;;;3;2.7;;;;;;;;;;;;;
2024/02/20 16:30:22;;;;;;;2.5;2.3;;;;;;;;;;;;;
2024/02/20 16:32:47;;;;;;;1.6;1.2;;;;;;;;;;;;;
2024/02/20 16:35:14;;;;;;;1.9;1.2;;;;;;;;;;;;;
2024/02/20 16:37:38;;;;;;;2.9;2.1;;;;;;;;;;;;;
2024/02/20 16:40:02;;;;;;;4.6;2.3;;;;;;;;;;;;;
2024/02/20 16:42:28;;;;;;;3.6;2.3;;;;;;;;;;;;;
2024/02/20 16:44:53;;;;;;;4.1;2.4;;;;;;;;;;;;;
2024/02/20 16:47:18;;;;;;;2.9;1.9;;;;;;;;;;;;;
2024/02/20 16:49:43;;;;;;;3.8;2;;;;;;;;;;;;;
2024/02/20 16:52:08;;;;;;;2.7;1.7;;;;;;;;;;;;;
2024/02/20 16:54:33;;;;;;;4.3;2.4;;;;;;;;;;;;;
2024/02/20 16:56:58;;;;;;;5.4;3.3;;;;;;;;;;;;;
2024/02/20 16:59:23;;;;;;;3;2.7;;;;;;;;;;;;;
2024/02/20 17:01:49;;;;;;;2.5;0.9;;;;;;;;;;;;;
2024/02/20 17:04:14;;;;;;;2.9;1;;;;;;;;;;;;;
2024/02/20 17:06:39;;;;;;;1.8;1;;;;;;;;;;;;;
2024/02/20 17:09:04;;;;;;;4.3;2.7;;;;;;;;;;;;;
2024/02/20 17:11:29;;;;;;;11.1;5.3;;;;;;;;;;;;;
2024/02/20 17:13:54;;;;;;;7.7;3.7;;;;;;;;;;;;;
2024/02/20 17:16:19;;;;;;;5.5;2.6;;;;;;;;;;;;;
2024/02/20 17:18:44;;;;;;;4.9;3.4;;;;;;;;;;;;;
2024/02/20 17:21:12;;;;;;;8.6;5.4;;;;;;;;;;;;;
2024/02/20 17:23:34;;;;;;;5.4;4.1;;;;;;;;;;;;;
2024/02/20 17:26:00;;;;;;;4.1;3.3;;;;;;;;;;;;;
2024/02/20 17:28:25;;;;;;;4.2;2.3;;;;;;;;;;;;;
2024/02/20 17:30:50;;;;;;;5.2;4.4;;;;;;;;;;;;;
2024/02/20 17:33:15;;;;;;;6;4.2;;;;;;;;;;;;;
2024/02/20 17:35:40;;;;;;;6.1;3.4;;;;;;;;;;;;;
2024/02/20 17:38:05;;;;;;;6.7;4;;;;;;;;;;;;;
2024/02/20 17:40:30;;;;;;;9.9;6;;;;;;;;;;;;;
2024/02/20 17:42:55;;;;;;;9.7;4.6;;;;;;;;;;;;;
2024/02/20 17:45:21;;;;;;;3.3;2.1;;;;;;;;;;;;;
2024/02/20 17:47:45;;;;;;;3.3;2.2;;;;;;;;;;;;;
2024/02/20 17:50:11;;;;;;;5.2;3;;;;;;;;;;;;;
2024/02/20 17:52:35;;;;;;;8.2;4;;;;;;;;;;;;;
2024/02/20 17:55:01;;;;;;;4.2;2.7;;;;;;;;;;;;;
2024/02/20 17:57:26;;;;;;;4.2;2.6;;;;;;;;;;;;;
2024/02/20 17:59:51;;;;;;;4.1;2.4;;;;;;;;;;;;;
2024/02/20 18:02:16;;;;;;;2.4;1.9;;;;;;;;;;;;;
2024/02/20 18:04:42;;;;;;;7.2;5.4;;;;;;;;;;;;;
2024/02/20 18:07:07;;;;;;;6.8;4.5;;;;;;;;;;;;;
2024/02/20 18:09:34;;;;;;;12.3;7.5;;;;;;;;;;;;;
2024/02/20 18:11:57;;;;;;;6.8;4.2;;;;;;;;;;;;;
2024/02/20 18:14:23;;;;;;;4.8;3.2;;;;;;;;;;;;;
2024/02/20 18:16:48;;;;;;;9.1;3.9;;;;;;;;;;;;;
2024/02/20 18:19:14;;;;;;;7.7;4.3;;;;;;;;;;;;;
2024/02/20 18:21:38;;;;;;;20;8.2;;;;;;;;;;;;;
2024/02/20 18:24:03;;;;;;;10.3;5.5;;;;;;;;;;;;;
2024/02/20 18:26:28;;;;;;;11.4;5.2;;;;;;;;;;;;;
2024/02/20 18:28:55;;;;;;;8.4;4.6;;;;;;;;;;;;;
2024/02/20 18:31:18;;;;;;;9.8;6;;;;;;;;;;;;;
2024/02/20 18:33:44;;;;;;;9.4;5.4;;;;;;;;;;;;;
2024/02/20 18:36:09;;;;;;;11.6;5.7;;;;;;;;;;;;;
2024/02/20 18:38:34;;;;;;;18.7;7.1;;;;;;;;;;;;;
2024/02/20 18:40:59;;;;;;;10.4;4.9;;;;;;;;;;;;;
2024/02/20 18:43:24;;;;;;;15.2;6.7;;;;;;;;;;;;;
2024/02/20 18:45:50;;;;;;;16.4;7.4;;;;;;;;;;;;;
2024/02/20 18:48:14;;;;;;;14.9;6.8;;;;;;;;;;;;;
2024/02/20 18:51:13;;;;;;;9.5;7.2;;;;;;;;;;;;;
2024/02/20 18:53:38;;;;;;;9.7;7.3;;;;;;;;;;;;;
2024/02/20 18:56:03;;;;;;;18.5;12.5;;;;;;;;;;;;;
2024/02/20 18:58:28;;;;;;;8.5;5.2;;;;;;;;;;;;;
2024/02/20 19:00:53;;;;;;;10;5.9;;;;;;;;;;;;;
2024/02/20 19:03:18;;;;;;;10.3;5;;;;;;;;;;;;;
2024/02/20 19:05:43;;;;;;;9.4;5.1;;;;;;;;;;;;;
2024/02/20 19:08:09;;;;;;;15.4;10.1;;;;;;;;;;;;;
2024/02/20 19:10:36;;;;;;;13.3;8.6;;;;;;;;;;;;;
2024/02/20 19:12:59;;;;;;;12;6.9;;;;;;;;;;;;;
2024/02/20 19:15:24;;;;;;;9.9;6.9;;;;;;;;;;;;;
2024/02/20 19:17:49;;;;;;;7.4;5;;;;;;;;;;;;;
2024/02/20 19:20:18;;;;;;;15.8;10.4;;;;;;;;;;;;;
2024/02/20 19:22:39;;;;;;;6.4;4.4;;;;;;;;;;;;;
2024/02/20 19:25:05;;;;;;;8;4.7;;;;;;;;;;;;;
2024/02/20 19:27:29;;;;;;;7.8;4.4;;;;;;;;;;;;;
2024/02/20 19:29:56;;;;;;;6.4;4;;;;;;;;;;;;;
2024/02/20 19:32:19;;;;;;;15;10.9;;;;;;;;;;;;;
2024/02/20 19:34:45;;;;;;;11.2;6.5;;;;;;;;;;;;;
2024/02/20 19:37:10;;;;;;;10.8;7.2;;;;;;;;;;;;;
2024/02/20 19:39:35;;;;;;;7.2;5.4;;;;;;;;;;;;;
2024/02/20 19:42:00;;;;;;;5.8;4.4;;;;;;;;;;;;;
2024/02/20 19:44:25;;;;;;;6.3;4.1;;;;;;;;;;;;;
2024/02/20 19:46:50;;;;;;;6.4;4;;;;;;;;;;;;;
2024/02/20 19:49:15;;;;;;;10.5;6.1;;;;;;;;;;;;;
2024/02/20 19:51:41;;;;;;;3.8;2.6;;;;;;;;;;;;;
2024/02/20 19:54:06;;;;;;;3.8;2.7;;;;;;;;;;;;;
2024/02/20 19:56:31;;;;;;;2.5;1.6;;;;;;;;;;;;;
2024/02/20 19:58:56;;;;;;;4.4;2.2;;;;;;;;;;;;;
2024/02/20 20:01:21;;;;;;;3.5;2.2;;;;;;;;;;;;;
2024/02/20 20:03:47;;;;;;;4.3;3.1;;;;;;;;;;;;;
2024/02/20 20:06:14;;;;;;;9.1;5.1;;;;;;;;;;;;;
2024/02/20 20:08:37;;;;;;;17.7;9.8;;;;;;;;;;;;;
2024/02/20 20:11:02;;;;;;;135.4;72;;;;;;;;;;;;;
2024/02/20 20:13:27;;;;;;;216.4;107.3;;;;;;;;;;;;;
2024/02/20 20:15:52;;;;;;;71.7;35.2;;;;;;;;;;;;;
2024/02/20 20:18:17;;;;;;;70.7;56.7;;;;;;;;;;;;;
2024/02/20 20:20:43;;;;;;;35.6;30.8;;;;;;;;;;;;;
2024/02/20 20:23:07;;;;;;;13.4;7.7;;;;;;;;;;;;;
2024/02/20 20:25:32;;;;;;;8.5;4.3;;;;;;;;;;;;;
2024/02/20 20:27:57;;;;;;;6.1;3.6;;;;;;;;;;;;;
2024/02/20 20:30:23;;;;;;;5.7;3.3;;;;;;;;;;;;;
2024/02/20 20:32:47;;;;;;;5.3;3.5;;;;;;;;;;;;;
2024/02/20 20:35:13;;;;;;;7.5;3.9;;;;;;;;;;;;;
2024/02/20 20:37:38;;;;;;;4.6;3.7;;;;;;;;;;;;;